sensor_id;sensor_type;location;lat;lon;timestamp;temperature;humidity
16064;DHT22;8136;53.172;8.256;2023-03-22T00:00:23;10.40;99.90
16064;DHT22;8136;53.172;8.256;2023-03-22T00:02:51;10.40;99.90
16064;DHT22;8136;53.172;8.256;2023-03-22T00:05:19;10.40;99.90
16064;DHT22;8136;53.172;8.256;2023-03-22T00:07:46;10.30;99.90
16064;DHT22;8136;53.172;8.256;2023-03-22T00:10:15;10.30;99.90
16064;DHT22;8136;53.172;8.256;2023-03-22T00:12:42;10.30;99.90
16064;DHT22;8136;53.172;8.256;2023-03-22T00:15:09;10.30;99.90
16064;DHT22;8136;53.172;8.256;2023-03-22T00:17:36;10.30;99.90
16064;DHT22;8136;53.172;8.256;2023-03-22T00:20:04;10.30;99.90
16064;DHT22;8136;53.172;8.256;2023-03-22T00:22:33;10.30;99.90
16064;DHT22;8136;53.172;8.256;2023-03-22T00:24:59;10.30;99.90
16064;DHT22;8136;53.172;8.256;2023-03-22T00:27:26;10.30;99.90
16064;DHT22;8136;53.172;8.256;2023-03-22T00:29:53;10.30;99.90
16064;DHT22;8136;53.172;8.256;2023-03-22T00:32:20;10.30;99.90
16064;DHT22;8136;53.172;8.256;2023-03-22T00:34:47;10.30;99.90
16064;DHT22;8136;53.172;8.256;2023-03-22T00:37:13;10.30;99.90
16064;DHT22;8136;53.172;8.256;2023-03-22T00:39:43;10.30;99.90
16064;DHT22;8136;53.172;8.256;2023-03-22T00:42:10;10.30;99.90
16064;DHT22;8136;53.172;8.256;2023-03-22T00:44:37;10.30;99.90
16064;DHT22;8136;53.172;8.256;2023-03-22T00:47:04;10.30;99.90
16064;DHT22;8136;53.172;8.256;2023-03-22T00:49:31;10.30;99.90
16064;DHT22;8136;53.172;8.256;2023-03-22T00:51:59;10.30;99.90
16064;DHT22;8136;53.172;8.256;2023-03-22T00:54:26;10.40;99.90
16064;DHT22;8136;53.172;8.256;2023-03-22T00:56:54;10.40;99.90
16064;DHT22;8136;53.172;8.256;2023-03-22T00:59:21;10.40;99.90
16064;DHT22;8136;53.172;8.256;2023-03-22T01:01:48;10.40;99.90
16064;DHT22;8136;53.172;8.256;2023-03-22T01:04:14;10.40;99.90
16064;DHT22;8136;53.172;8.256;2023-03-22T01:06:42;10.40;99.90
16064;DHT22;8136;53.172;8.256;2023-03-22T01:09:11;10.50;99.90
16064;DHT22;8136;53.172;8.256;2023-03-22T01:11:39;10.40;99.90
16064;DHT22;8136;53.172;8.256;2023-03-22T01:14:07;10.50;99.90
16064;DHT22;8136;53.172;8.256;2023-03-22T01:19:01;10.50;99.90
16064;DHT22;8136;53.172;8.256;2023-03-22T01:21:28;10.50;99.90
16064;DHT22;8136;53.172;8.256;2023-03-22T01:23:55;10.50;99.90
16064;DHT22;8136;53.172;8.256;2023-03-22T01:26:22;10.50;99.90
16064;DHT22;8136;53.172;8.256;2023-03-22T01:28:49;10.50;99.90
16064;DHT22;8136;53.172;8.256;2023-03-22T01:31:17;10.60;99.90
16064;DHT22;8136;53.172;8.256;2023-03-22T01:33:43;10.60;99.90
16064;DHT22;8136;53.172;8.256;2023-03-22T01:36:10;10.60;99.90
16064;DHT22;8136;53.172;8.256;2023-03-22T01:38:37;10.60;99.90
16064;DHT22;8136;53.172;8.256;2023-03-22T01:41:04;10.60;99.90
16064;DHT22;8136;53.172;8.256;2023-03-22T01:43:31;10.60;99.90
16064;DHT22;8136;53.172;8.256;2023-03-22T01:45:58;10.60;99.90
16064;DHT22;8136;53.172;8.256;2023-03-22T01:48:29;10.60;99.90
16064;DHT22;8136;53.172;8.256;2023-03-22T01:51:03;10.60;99.90
16064;DHT22;8136;53.172;8.256;2023-03-22T01:53:33;10.70;99.90
16064;DHT22;8136;53.172;8.256;2023-03-22T01:56:01;10.60;99.90
16064;DHT22;8136;53.172;8.256;2023-03-22T01:58:28;10.70;99.90
16064;DHT22;8136;53.172;8.256;2023-03-22T02:00:57;10.60;99.90
16064;DHT22;8136;53.172;8.256;2023-03-22T02:03:31;10.60;99.90
16064;DHT22;8136;53.172;8.256;2023-03-22T02:05:59;10.60;99.90
16064;DHT22;8136;53.172;8.256;2023-03-22T02:08:27;10.60;99.90
16064;DHT22;8136;53.172;8.256;2023-03-22T02:10:54;10.60;99.90
16064;DHT22;8136;53.172;8.256;2023-03-22T02:13:36;10.60;99.90
16064;DHT22;8136;53.172;8.256;2023-03-22T02:16:21;10.70;99.90
16064;DHT22;8136;53.172;8.256;2023-03-22T02:18:58;10.60;99.90
16064;DHT22;8136;53.172;8.256;2023-03-22T02:21:46;10.60;99.90
16064;DHT22;8136;53.172;8.256;2023-03-22T02:24:44;10.70;99.90
16064;DHT22;8136;53.172;8.256;2023-03-22T02:27:31;10.60;99.90
16064;DHT22;8136;53.172;8.256;2023-03-22T02:30:24;10.70;99.90
16064;DHT22;8136;53.172;8.256;2023-03-22T02:33:28;10.70;99.90
16064;DHT22;8136;53.172;8.256;2023-03-22T02:36:19;10.70;99.90
16064;DHT22;8136;53.172;8.256;2023-03-22T02:39:15;10.70;99.90
16064;DHT22;8136;53.172;8.256;2023-03-22T02:41:56;10.70;99.90
16064;DHT22;8136;53.172;8.256;2023-03-22T02:44:34;10.70;99.90
16064;DHT22;8136;53.172;8.256;2023-03-22T02:47:09;10.70;99.90
16064;DHT22;8136;53.172;8.256;2023-03-22T02:49:47;10.70;99.90
16064;DHT22;8136;53.172;8.256;2023-03-22T02:52:24;10.80;99.90
16064;DHT22;8136;53.172;8.256;2023-03-22T02:54:59;10.80;99.90
16064;DHT22;8136;53.172;8.256;2023-03-22T02:57:32;10.80;99.90
16064;DHT22;8136;53.172;8.256;2023-03-22T03:00:03;10.80;99.90
16064;DHT22;8136;53.172;8.256;2023-03-22T03:02:35;10.80;99.90
16064;DHT22;8136;53.172;8.256;2023-03-22T03:05:04;10.90;99.90
16064;DHT22;8136;53.172;8.256;2023-03-22T03:07:31;10.90;99.90
16064;DHT22;8136;53.172;8.256;2023-03-22T03:10:00;10.90;99.90
16064;DHT22;8136;53.172;8.256;2023-03-22T03:12:27;10.90;99.90
16064;DHT22;8136;53.172;8.256;2023-03-22T03:14:54;10.90;99.90
16064;DHT22;8136;53.172;8.256;2023-03-22T03:17:29;10.90;99.90
16064;DHT22;8136;53.172;8.256;2023-03-22T03:20:09;10.90;99.90
16064;DHT22;8136;53.172;8.256;2023-03-22T03:22:49;10.90;99.90
16064;DHT22;8136;53.172;8.256;2023-03-22T03:25:25;10.90;99.90
16064;DHT22;8136;53.172;8.256;2023-03-22T03:28:00;10.90;99.90
16064;DHT22;8136;53.172;8.256;2023-03-22T03:30:34;10.90;99.90
16064;DHT22;8136;53.172;8.256;2023-03-22T03:33:07;10.90;99.90
16064;DHT22;8136;53.172;8.256;2023-03-22T03:35:38;10.90;99.90
16064;DHT22;8136;53.172;8.256;2023-03-22T03:38:09;10.90;99.90
16064;DHT22;8136;53.172;8.256;2023-03-22T03:40:41;10.90;99.90
16064;DHT22;8136;53.172;8.256;2023-03-22T03:43:10;10.90;99.90
16064;DHT22;8136;53.172;8.256;2023-03-22T03:45:38;10.90;99.90
16064;DHT22;8136;53.172;8.256;2023-03-22T03:48:08;10.90;99.90
16064;DHT22;8136;53.172;8.256;2023-03-22T03:50:37;10.90;99.90
16064;DHT22;8136;53.172;8.256;2023-03-22T03:53:04;10.90;99.90
16064;DHT22;8136;53.172;8.256;2023-03-22T03:55:31;10.90;99.90
16064;DHT22;8136;53.172;8.256;2023-03-22T03:58:00;10.80;99.90
16064;DHT22;8136;53.172;8.256;2023-03-22T04:00:26;10.80;99.90
16064;DHT22;8136;53.172;8.256;2023-03-22T04:02:53;10.80;99.90
16064;DHT22;8136;53.172;8.256;2023-03-22T04:05:20;10.80;99.90
16064;DHT22;8136;53.172;8.256;2023-03-22T04:07:47;10.80;99.90
16064;DHT22;8136;53.172;8.256;2023-03-22T04:10:14;10.80;99.90
16064;DHT22;8136;53.172;8.256;2023-03-22T04:12:40;10.80;99.90
16064;DHT22;8136;53.172;8.256;2023-03-22T04:15:09;10.90;99.90
16064;DHT22;8136;53.172;8.256;2023-03-22T04:17:37;10.90;99.90
16064;DHT22;8136;53.172;8.256;2023-03-22T04:20:05;10.80;99.90
16064;DHT22;8136;53.172;8.256;2023-03-22T04:22:32;10.80;99.90
16064;DHT22;8136;53.172;8.256;2023-03-22T04:24:59;10.80;99.90
16064;DHT22;8136;53.172;8.256;2023-03-22T04:27:26;10.80;99.90
16064;DHT22;8136;53.172;8.256;2023-03-22T04:29:53;10.80;99.90
16064;DHT22;8136;53.172;8.256;2023-03-22T04:32:21;10.80;99.90
16064;DHT22;8136;53.172;8.256;2023-03-22T04:34:48;10.80;99.90
16064;DHT22;8136;53.172;8.256;2023-03-22T04:37:15;10.80;99.90
16064;DHT22;8136;53.172;8.256;2023-03-22T04:39:42;10.80;99.90
16064;DHT22;8136;53.172;8.256;2023-03-22T04:42:28;10.80;99.90
16064;DHT22;8136;53.172;8.256;2023-03-22T04:44:54;10.80;99.90
16064;DHT22;8136;53.172;8.256;2023-03-22T04:47:23;10.70;99.90
16064;DHT22;8136;53.172;8.256;2023-03-22T04:49:49;10.80;99.90
16064;DHT22;8136;53.172;8.256;2023-03-22T04:52:16;10.80;99.90
16064;DHT22;8136;53.172;8.256;2023-03-22T04:54:43;10.80;99.90
16064;DHT22;8136;53.172;8.256;2023-03-22T04:57:10;10.80;99.90
16064;DHT22;8136;53.172;8.256;2023-03-22T04:59:36;10.80;99.90
16064;DHT22;8136;53.172;8.256;2023-03-22T05:02:03;10.80;99.90
16064;DHT22;8136;53.172;8.256;2023-03-22T05:04:31;10.80;99.90
16064;DHT22;8136;53.172;8.256;2023-03-22T05:06:58;10.80;99.90
16064;DHT22;8136;53.172;8.256;2023-03-22T05:09:25;10.80;99.90
16064;DHT22;8136;53.172;8.256;2023-03-22T05:11:51;10.70;99.90
16064;DHT22;8136;53.172;8.256;2023-03-22T05:14:18;10.70;99.90
16064;DHT22;8136;53.172;8.256;2023-03-22T05:16:45;10.70;99.90
16064;DHT22;8136;53.172;8.256;2023-03-22T05:19:12;10.70;99.90
16064;DHT22;8136;53.172;8.256;2023-03-22T05:21:41;10.70;99.90
16064;DHT22;8136;53.172;8.256;2023-03-22T05:24:09;10.70;99.90
16064;DHT22;8136;53.172;8.256;2023-03-22T05:26:36;10.70;99.90
16064;DHT22;8136;53.172;8.256;2023-03-22T05:29:06;10.70;99.90
16064;DHT22;8136;53.172;8.256;2023-03-22T05:31:33;10.70;99.90
16064;DHT22;8136;53.172;8.256;2023-03-22T05:34:00;10.80;99.90
16064;DHT22;8136;53.172;8.256;2023-03-22T05:36:27;10.80;99.90
16064;DHT22;8136;53.172;8.256;2023-03-22T05:38:56;10.80;99.90
16064;DHT22;8136;53.172;8.256;2023-03-22T05:41:23;10.80;99.90
16064;DHT22;8136;53.172;8.256;2023-03-22T05:43:50;10.80;99.90
16064;DHT22;8136;53.172;8.256;2023-03-22T05:46:16;10.80;99.90
16064;DHT22;8136;53.172;8.256;2023-03-22T05:48:43;10.80;99.90
16064;DHT22;8136;53.172;8.256;2023-03-22T05:51:12;10.80;99.90
16064;DHT22;8136;53.172;8.256;2023-03-22T05:53:42;10.80;99.90
16064;DHT22;8136;53.172;8.256;2023-03-22T05:56:10;10.90;99.90
16064;DHT22;8136;53.172;8.256;2023-03-22T05:58:37;10.90;99.90
16064;DHT22;8136;53.172;8.256;2023-03-22T06:01:05;10.90;99.90
16064;DHT22;8136;53.172;8.256;2023-03-22T06:03:32;10.90;99.90
16064;DHT22;8136;53.172;8.256;2023-03-22T06:05:58;11.00;99.90
16064;DHT22;8136;53.172;8.256;2023-03-22T06:08:25;11.00;99.90
16064;DHT22;8136;53.172;8.256;2023-03-22T06:10:53;11.00;99.90
16064;DHT22;8136;53.172;8.256;2023-03-22T06:13:21;11.00;99.90
16064;DHT22;8136;53.172;8.256;2023-03-22T06:15:48;11.10;99.90
16064;DHT22;8136;53.172;8.256;2023-03-22T06:18:14;11.10;99.90
16064;DHT22;8136;53.172;8.256;2023-03-22T06:20:41;11.10;99.90
16064;DHT22;8136;53.172;8.256;2023-03-22T06:23:09;11.10;99.90
16064;DHT22;8136;53.172;8.256;2023-03-22T06:25:36;11.10;99.90
16064;DHT22;8136;53.172;8.256;2023-03-22T06:28:02;11.20;99.90
16064;DHT22;8136;53.172;8.256;2023-03-22T06:30:32;11.20;99.90
16064;DHT22;8136;53.172;8.256;2023-03-22T06:32:58;11.20;99.90
16064;DHT22;8136;53.172;8.256;2023-03-22T06:35:28;11.20;99.90
16064;DHT22;8136;53.172;8.256;2023-03-22T06:37:55;11.20;99.90
16064;DHT22;8136;53.172;8.256;2023-03-22T06:40:22;11.30;99.90
16064;DHT22;8136;53.172;8.256;2023-03-22T06:42:49;11.30;99.90
16064;DHT22;8136;53.172;8.256;2023-03-22T06:45:16;11.30;99.90
16064;DHT22;8136;53.172;8.256;2023-03-22T06:47:44;11.30;99.90
16064;DHT22;8136;53.172;8.256;2023-03-22T06:50:11;11.30;99.90
16064;DHT22;8136;53.172;8.256;2023-03-22T06:52:39;11.40;99.90
16064;DHT22;8136;53.172;8.256;2023-03-22T06:55:07;11.40;99.90
16064;DHT22;8136;53.172;8.256;2023-03-22T06:57:34;11.40;99.90
16064;DHT22;8136;53.172;8.256;2023-03-22T07:00:00;11.40;99.90
16064;DHT22;8136;53.172;8.256;2023-03-22T07:02:29;11.40;99.90
16064;DHT22;8136;53.172;8.256;2023-03-22T07:04:57;11.40;99.90
16064;DHT22;8136;53.172;8.256;2023-03-22T07:07:24;11.40;99.90
16064;DHT22;8136;53.172;8.256;2023-03-22T07:09:51;11.40;99.90
16064;DHT22;8136;53.172;8.256;2023-03-22T07:12:18;11.50;99.90
16064;DHT22;8136;53.172;8.256;2023-03-22T07:14:45;11.50;99.90
16064;DHT22;8136;53.172;8.256;2023-03-22T07:17:11;11.50;99.90
16064;DHT22;8136;53.172;8.256;2023-03-22T07:19:38;11.50;99.90
16064;DHT22;8136;53.172;8.256;2023-03-22T07:22:08;11.50;99.90
16064;DHT22;8136;53.172;8.256;2023-03-22T07:24:35;11.50;99.90
16064;DHT22;8136;53.172;8.256;2023-03-22T07:27:01;11.50;99.90
16064;DHT22;8136;53.172;8.256;2023-03-22T07:29:28;11.50;99.90
16064;DHT22;8136;53.172;8.256;2023-03-22T07:31:55;11.50;99.90
16064;DHT22;8136;53.172;8.256;2023-03-22T07:34:22;11.60;99.90
16064;DHT22;8136;53.172;8.256;2023-03-22T07:36:49;11.60;99.90
16064;DHT22;8136;53.172;8.256;2023-03-22T07:39:17;11.60;99.90
16064;DHT22;8136;53.172;8.256;2023-03-22T07:41:43;11.70;99.90
16064;DHT22;8136;53.172;8.256;2023-03-22T07:44:10;11.70;99.90
16064;DHT22;8136;53.172;8.256;2023-03-22T07:46:38;11.80;99.90
16064;DHT22;8136;53.172;8.256;2023-03-22T07:49:04;11.80;99.90
16064;DHT22;8136;53.172;8.256;2023-03-22T07:51:31;11.80;99.90
16064;DHT22;8136;53.172;8.256;2023-03-22T07:53:58;11.80;99.90
16064;DHT22;8136;53.172;8.256;2023-03-22T07:56:26;11.90;99.90
16064;DHT22;8136;53.172;8.256;2023-03-22T07:58:53;11.90;99.90
16064;DHT22;8136;53.172;8.256;2023-03-22T08:01:19;11.90;99.90
16064;DHT22;8136;53.172;8.256;2023-03-22T08:03:46;11.90;99.90
16064;DHT22;8136;53.172;8.256;2023-03-22T08:06:13;11.90;99.90
16064;DHT22;8136;53.172;8.256;2023-03-22T08:08:40;12.00;99.90
16064;DHT22;8136;53.172;8.256;2023-03-22T08:11:07;12.00;99.90
16064;DHT22;8136;53.172;8.256;2023-03-22T08:13:35;12.00;99.90
16064;DHT22;8136;53.172;8.256;2023-03-22T08:16:02;12.10;99.90
16064;DHT22;8136;53.172;8.256;2023-03-22T08:18:29;12.10;99.90
16064;DHT22;8136;53.172;8.256;2023-03-22T08:20:58;12.20;99.90
16064;DHT22;8136;53.172;8.256;2023-03-22T08:23:26;12.20;99.90
16064;DHT22;8136;53.172;8.256;2023-03-22T08:25:53;12.30;99.90
16064;DHT22;8136;53.172;8.256;2023-03-22T08:28:20;12.30;99.90
16064;DHT22;8136;53.172;8.256;2023-03-22T08:30:50;12.20;99.90
16064;DHT22;8136;53.172;8.256;2023-03-22T08:33:16;12.30;99.90
16064;DHT22;8136;53.172;8.256;2023-03-22T08:35:45;12.20;99.90
16064;DHT22;8136;53.172;8.256;2023-03-22T08:38:12;12.30;99.90
16064;DHT22;8136;53.172;8.256;2023-03-22T08:40:39;12.40;99.90
16064;DHT22;8136;53.172;8.256;2023-03-22T08:43:05;12.40;99.90
16064;DHT22;8136;53.172;8.256;2023-03-22T08:45:32;12.40;99.90
16064;DHT22;8136;53.172;8.256;2023-03-22T08:48:00;12.30;99.90
16064;DHT22;8136;53.172;8.256;2023-03-22T08:50:27;12.30;99.90
16064;DHT22;8136;53.172;8.256;2023-03-22T08:52:54;12.30;99.90
16064;DHT22;8136;53.172;8.256;2023-03-22T08:55:21;12.30;99.90
16064;DHT22;8136;53.172;8.256;2023-03-22T08:57:47;12.30;99.90
16064;DHT22;8136;53.172;8.256;2023-03-22T09:00:17;12.30;99.90
16064;DHT22;8136;53.172;8.256;2023-03-22T09:02:44;12.30;99.90
16064;DHT22;8136;53.172;8.256;2023-03-22T09:05:12;12.30;99.90
16064;DHT22;8136;53.172;8.256;2023-03-22T09:07:39;12.30;99.90
16064;DHT22;8136;53.172;8.256;2023-03-22T09:10:07;12.30;99.90
16064;DHT22;8136;53.172;8.256;2023-03-22T09:12:34;12.40;99.90
16064;DHT22;8136;53.172;8.256;2023-03-22T09:15:00;12.50;99.90
16064;DHT22;8136;53.172;8.256;2023-03-22T09:17:27;12.50;99.90
16064;DHT22;8136;53.172;8.256;2023-03-22T09:19:54;12.60;99.90
16064;DHT22;8136;53.172;8.256;2023-03-22T09:22:23;12.50;99.90
16064;DHT22;8136;53.172;8.256;2023-03-22T09:24:49;12.60;99.90
16064;DHT22;8136;53.172;8.256;2023-03-22T09:27:16;12.60;99.90
16064;DHT22;8136;53.172;8.256;2023-03-22T09:29:43;12.50;99.90
16064;DHT22;8136;53.172;8.256;2023-03-22T09:32:10;12.60;99.90
16064;DHT22;8136;53.172;8.256;2023-03-22T09:34:36;12.70;99.90
16064;DHT22;8136;53.172;8.256;2023-03-22T09:37:03;12.70;99.90
16064;DHT22;8136;53.172;8.256;2023-03-22T09:39:32;12.70;99.90
16064;DHT22;8136;53.172;8.256;2023-03-22T09:42:00;12.60;99.90
16064;DHT22;8136;53.172;8.256;2023-03-22T09:44:31;12.60;99.90
16064;DHT22;8136;53.172;8.256;2023-03-22T09:47:01;12.60;99.90
16064;DHT22;8136;53.172;8.256;2023-03-22T09:49:33;12.60;99.90
16064;DHT22;8136;53.172;8.256;2023-03-22T09:52:04;12.60;99.90
16064;DHT22;8136;53.172;8.256;2023-03-22T09:54:34;12.60;99.90
16064;DHT22;8136;53.172;8.256;2023-03-22T09:57:04;12.70;99.90
16064;DHT22;8136;53.172;8.256;2023-03-22T09:59:37;12.70;99.90
16064;DHT22;8136;53.172;8.256;2023-03-22T10:02:17;12.80;99.90
16064;DHT22;8136;53.172;8.256;2023-03-22T10:04:50;12.80;99.90
16064;DHT22;8136;53.172;8.256;2023-03-22T10:07:24;12.90;99.90
16064;DHT22;8136;53.172;8.256;2023-03-22T10:10:03;12.90;99.90
16064;DHT22;8136;53.172;8.256;2023-03-22T10:12:37;12.90;99.90
16064;DHT22;8136;53.172;8.256;2023-03-22T10:15:12;12.90;99.90
16064;DHT22;8136;53.172;8.256;2023-03-22T10:17:41;12.90;99.90
16064;DHT22;8136;53.172;8.256;2023-03-22T10:20:18;12.90;99.90
16064;DHT22;8136;53.172;8.256;2023-03-22T10:22:48;12.90;99.90
16064;DHT22;8136;53.172;8.256;2023-03-22T10:25:21;12.90;99.90
16064;DHT22;8136;53.172;8.256;2023-03-22T10:27:50;13.00;99.90
16064;DHT22;8136;53.172;8.256;2023-03-22T10:30:20;13.00;99.90
16064;DHT22;8136;53.172;8.256;2023-03-22T10:32:50;13.00;99.90
16064;DHT22;8136;53.172;8.256;2023-03-22T10:35:18;13.00;99.90
16064;DHT22;8136;53.172;8.256;2023-03-22T10:37:47;13.10;99.90
16064;DHT22;8136;53.172;8.256;2023-03-22T10:40:20;13.10;99.90
16064;DHT22;8136;53.172;8.256;2023-03-22T10:42:52;13.10;99.90
16064;DHT22;8136;53.172;8.256;2023-03-22T10:45:20;13.10;99.90
16064;DHT22;8136;53.172;8.256;2023-03-22T10:47:53;13.10;99.90
16064;DHT22;8136;53.172;8.256;2023-03-22T10:50:26;13.20;99.90
16064;DHT22;8136;53.172;8.256;2023-03-22T10:52:58;13.30;99.90
16064;DHT22;8136;53.172;8.256;2023-03-22T10:55:29;13.40;99.90
16064;DHT22;8136;53.172;8.256;2023-03-22T10:58:04;13.50;99.90
16064;DHT22;8136;53.172;8.256;2023-03-22T11:00:36;13.50;99.90
16064;DHT22;8136;53.172;8.256;2023-03-22T11:03:05;13.60;99.90
16064;DHT22;8136;53.172;8.256;2023-03-22T11:05:32;13.70;99.90
16064;DHT22;8136;53.172;8.256;2023-03-22T11:08:01;13.60;99.90
16064;DHT22;8136;53.172;8.256;2023-03-22T11:10:30;13.70;99.90
16064;DHT22;8136;53.172;8.256;2023-03-22T11:13:15;13.60;99.90
16064;DHT22;8136;53.172;8.256;2023-03-22T11:15:49;13.60;99.90
16064;DHT22;8136;53.172;8.256;2023-03-22T11:18:17;13.60;99.90
16064;DHT22;8136;53.172;8.256;2023-03-22T11:20:55;13.50;99.90
16064;DHT22;8136;53.172;8.256;2023-03-22T11:23:23;13.40;99.90
16064;DHT22;8136;53.172;8.256;2023-03-22T11:25:55;13.40;99.90
16064;DHT22;8136;53.172;8.256;2023-03-22T11:28:26;13.30;99.90
16064;DHT22;8136;53.172;8.256;2023-03-22T11:31:01;13.30;99.90
16064;DHT22;8136;53.172;8.256;2023-03-22T11:33:29;13.30;99.90
16064;DHT22;8136;53.172;8.256;2023-03-22T11:35:58;13.30;99.90
16064;DHT22;8136;53.172;8.256;2023-03-22T11:38:27;13.20;99.90
16064;DHT22;8136;53.172;8.256;2023-03-22T11:40:59;13.20;99.90
16064;DHT22;8136;53.172;8.256;2023-03-22T11:43:33;13.10;99.90
16064;DHT22;8136;53.172;8.256;2023-03-22T11:46:01;13.00;99.90
16064;DHT22;8136;53.172;8.256;2023-03-22T11:48:29;13.00;99.90
16064;DHT22;8136;53.172;8.256;2023-03-22T11:51:04;13.00;99.90
16064;DHT22;8136;53.172;8.256;2023-03-22T11:53:33;12.90;99.90
16064;DHT22;8136;53.172;8.256;2023-03-22T11:56:05;12.80;99.90
16064;DHT22;8136;53.172;8.256;2023-03-22T11:58:56;12.80;99.90
16064;DHT22;8136;53.172;8.256;2023-03-22T12:01:33;12.70;99.90
16064;DHT22;8136;53.172;8.256;2023-03-22T12:04:04;12.60;99.90
16064;DHT22;8136;53.172;8.256;2023-03-22T12:06:33;12.50;99.90
16064;DHT22;8136;53.172;8.256;2023-03-22T12:09:05;12.50;99.90
16064;DHT22;8136;53.172;8.256;2023-03-22T12:11:38;12.40;99.90
16064;DHT22;8136;53.172;8.256;2023-03-22T12:14:11;12.40;99.90
16064;DHT22;8136;53.172;8.256;2023-03-22T12:16:44;12.40;99.90
16064;DHT22;8136;53.172;8.256;2023-03-22T12:19:19;12.40;99.90
16064;DHT22;8136;53.172;8.256;2023-03-22T12:21:48;12.40;99.90
16064;DHT22;8136;53.172;8.256;2023-03-22T12:24:24;12.40;99.90
16064;DHT22;8136;53.172;8.256;2023-03-22T12:26:54;12.40;99.90
16064;DHT22;8136;53.172;8.256;2023-03-22T12:29:22;12.40;99.90
16064;DHT22;8136;53.172;8.256;2023-03-22T12:31:56;12.40;99.90
16064;DHT22;8136;53.172;8.256;2023-03-22T12:34:31;12.40;99.90
16064;DHT22;8136;53.172;8.256;2023-03-22T12:37:01;12.40;99.90
16064;DHT22;8136;53.172;8.256;2023-03-22T12:39:32;12.40;99.90
16064;DHT22;8136;53.172;8.256;2023-03-22T12:42:09;12.40;99.90
16064;DHT22;8136;53.172;8.256;2023-03-22T12:44:40;12.50;99.90
16064;DHT22;8136;53.172;8.256;2023-03-22T12:47:15;12.50;99.90
16064;DHT22;8136;53.172;8.256;2023-03-22T12:49:50;12.50;99.90
16064;DHT22;8136;53.172;8.256;2023-03-22T12:52:21;12.60;99.90
16064;DHT22;8136;53.172;8.256;2023-03-22T12:54:50;12.70;99.90
16064;DHT22;8136;53.172;8.256;2023-03-22T12:57:19;12.70;99.90
16064;DHT22;8136;53.172;8.256;2023-03-22T12:59:49;12.70;99.90
16064;DHT22;8136;53.172;8.256;2023-03-22T13:02:18;12.70;99.90
16064;DHT22;8136;53.172;8.256;2023-03-22T13:04:51;12.80;99.90
16064;DHT22;8136;53.172;8.256;2023-03-22T13:07:37;12.80;99.90
16064;DHT22;8136;53.172;8.256;2023-03-22T13:13:15;12.80;99.90
16064;DHT22;8136;53.172;8.256;2023-03-22T13:15:57;12.70;99.90
16064;DHT22;8136;53.172;8.256;2023-03-22T13:18:30;12.70;99.90
16064;DHT22;8136;53.172;8.256;2023-03-22T13:21:12;12.70;99.90
16064;DHT22;8136;53.172;8.256;2023-03-22T13:23:57;12.70;99.90
16064;DHT22;8136;53.172;8.256;2023-03-22T13:26:31;12.60;99.90
16064;DHT22;8136;53.172;8.256;2023-03-22T13:29:08;12.60;99.90
16064;DHT22;8136;53.172;8.256;2023-03-22T13:31:40;12.60;99.90
16064;DHT22;8136;53.172;8.256;2023-03-22T13:34:16;12.50;99.90
16064;DHT22;8136;53.172;8.256;2023-03-22T13:36:51;12.50;99.90
16064;DHT22;8136;53.172;8.256;2023-03-22T13:39:18;12.50;99.90
16064;DHT22;8136;53.172;8.256;2023-03-22T13:41:48;12.30;99.90
16064;DHT22;8136;53.172;8.256;2023-03-22T13:44:28;12.10;99.90
16064;DHT22;8136;53.172;8.256;2023-03-22T13:46:57;12.00;99.90
16064;DHT22;8136;53.172;8.256;2023-03-22T13:49:44;11.80;99.90
16064;DHT22;8136;53.172;8.256;2023-03-22T13:52:23;11.80;99.90
16064;DHT22;8136;53.172;8.256;2023-03-22T13:54:52;11.60;99.90
16064;DHT22;8136;53.172;8.256;2023-03-22T13:57:37;11.60;99.90
16064;DHT22;8136;53.172;8.256;2023-03-22T14:00:18;11.60;99.90
16064;DHT22;8136;53.172;8.256;2023-03-22T14:02:49;11.60;99.90
16064;DHT22;8136;53.172;8.256;2023-03-22T14:05:18;11.60;99.90
16064;DHT22;8136;53.172;8.256;2023-03-22T14:07:49;11.60;99.90
16064;DHT22;8136;53.172;8.256;2023-03-22T14:10:20;11.60;99.90
16064;DHT22;8136;53.172;8.256;2023-03-22T14:12:50;11.60;99.90
16064;DHT22;8136;53.172;8.256;2023-03-22T14:15:22;11.60;99.90
16064;DHT22;8136;53.172;8.256;2023-03-22T14:17:53;11.70;99.90
16064;DHT22;8136;53.172;8.256;2023-03-22T14:20:23;11.60;99.90
16064;DHT22;8136;53.172;8.256;2023-03-22T14:22:53;11.70;99.90
16064;DHT22;8136;53.172;8.256;2023-03-22T14:25:26;11.70;99.90
16064;DHT22;8136;53.172;8.256;2023-03-22T14:27:54;11.80;99.90
16064;DHT22;8136;53.172;8.256;2023-03-22T14:30:34;11.80;99.90
16064;DHT22;8136;53.172;8.256;2023-03-22T14:33:04;11.80;99.90
16064;DHT22;8136;53.172;8.256;2023-03-22T14:35:35;11.80;99.90
16064;DHT22;8136;53.172;8.256;2023-03-22T14:38:04;11.80;99.90
16064;DHT22;8136;53.172;8.256;2023-03-22T14:40:34;11.80;99.90
16064;DHT22;8136;53.172;8.256;2023-03-22T14:43:20;11.70;99.90
16064;DHT22;8136;53.172;8.256;2023-03-22T14:46:00;11.60;99.90
16064;DHT22;8136;53.172;8.256;2023-03-22T14:48:31;11.50;99.90
16064;DHT22;8136;53.172;8.256;2023-03-22T14:51:01;11.50;99.90
16064;DHT22;8136;53.172;8.256;2023-03-22T14:53:33;11.40;99.90
16064;DHT22;8136;53.172;8.256;2023-03-22T14:56:03;11.40;99.90
16064;DHT22;8136;53.172;8.256;2023-03-22T14:58:32;11.40;99.90
16064;DHT22;8136;53.172;8.256;2023-03-22T15:01:02;11.40;99.90
16064;DHT22;8136;53.172;8.256;2023-03-22T15:03:31;11.40;99.90
16064;DHT22;8136;53.172;8.256;2023-03-22T15:05:59;11.30;99.90
16064;DHT22;8136;53.172;8.256;2023-03-22T15:08:30;11.30;99.90
16064;DHT22;8136;53.172;8.256;2023-03-22T15:10:59;11.20;99.90
16064;DHT22;8136;53.172;8.256;2023-03-22T15:13:28;11.30;99.90
16064;DHT22;8136;53.172;8.256;2023-03-22T15:15:56;11.30;99.90
16064;DHT22;8136;53.172;8.256;2023-03-22T15:18:28;11.30;99.90
16064;DHT22;8136;53.172;8.256;2023-03-22T15:20:55;11.30;99.90
16064;DHT22;8136;53.172;8.256;2023-03-22T15:23:33;11.30;99.90
16064;DHT22;8136;53.172;8.256;2023-03-22T15:26:04;11.20;99.90
16064;DHT22;8136;53.172;8.256;2023-03-22T15:28:38;11.20;99.90
16064;DHT22;8136;53.172;8.256;2023-03-22T15:31:22;11.20;99.90
16064;DHT22;8136;53.172;8.256;2023-03-22T15:33:52;11.20;99.90
16064;DHT22;8136;53.172;8.256;2023-03-22T15:36:20;11.30;99.90
16064;DHT22;8136;53.172;8.256;2023-03-22T15:38:48;11.30;99.90
16064;DHT22;8136;53.172;8.256;2023-03-22T15:41:21;11.30;99.90
16064;DHT22;8136;53.172;8.256;2023-03-22T15:43:59;11.40;99.90
16064;DHT22;8136;53.172;8.256;2023-03-22T15:46:29;11.40;99.90
16064;DHT22;8136;53.172;8.256;2023-03-22T15:49:09;11.50;99.90
16064;DHT22;8136;53.172;8.256;2023-03-22T15:51:36;11.50;99.90
16064;DHT22;8136;53.172;8.256;2023-03-22T15:54:10;11.60;99.90
16064;DHT22;8136;53.172;8.256;2023-03-22T15:56:39;11.60;99.90
16064;DHT22;8136;53.172;8.256;2023-03-22T15:59:20;11.60;99.90
16064;DHT22;8136;53.172;8.256;2023-03-22T16:01:47;11.60;99.90
16064;DHT22;8136;53.172;8.256;2023-03-22T16:04:18;11.60;99.90
16064;DHT22;8136;53.172;8.256;2023-03-22T16:06:45;11.60;99.90
16064;DHT22;8136;53.172;8.256;2023-03-22T16:09:13;11.70;99.90